This is the latest recevied weather packets stored in our database for station/object W1RCY. If no packets are shown the sender has not sent any weather packets the latest 10 day(s).
| Time | Temp. | Humidity | Pressure | Rain* | Wind** | Luminosity | Snow |
|---|---|---|---|---|---|---|---|
| 1777411386 | 14.44° C | 26% | 1019.7 hPa | 0 mm | - | 192 W/m² | - |
| 1777411086 | 14.44° C | 26% | 1019.9 hPa | 0 mm | - | 170 W/m² | - |
| 1777410781 | 14.44° C | 26% | 1019.9 hPa | 0 mm | - | 209 W/m² | - |
| 1777410479 | 15° C | 28% | 1020 hPa | 0 mm | - | 265 W/m² | - |
| 1777410178 | 13.89° C | 31% | 1020 hPa | 0 mm | - | 294 W/m² | - |
| 1777409874 | 15° C | 29% | 1019.8 hPa | 0 mm | - | 313 W/m² | - |
| 1777409570 | 15° C | 31% | 1020 hPa | 0 mm | - | 317 W/m² | - |
| 1777409265 | 15.56° C | 29% | 1019.8 hPa | 0 mm | - | 363 W/m² | - |
| 1777408962 | 16.11° C | 30% | 1019.7 hPa | 0 mm | - | 372 W/m² | - |
| 1777408658 | 16.11° C | 31% | 1019.9 hPa | 0 mm | - | 360 W/m² | - |
| 1777408354 | 15.56° C | 31% | 1019.8 hPa | 0 mm | - | 409 W/m² | - |
| 1777408053 | 16.11° C | 32% | 1019.9 hPa | 0 mm | - | 425 W/m² | - |
| 1777407750 | 16.67° C | 34% | 1019.9 hPa | 0 mm | - | 448 W/m² | - |
| 1777407445 | 16.11° C | 35% | 1019.6 hPa | 0 mm | - | 459 W/m² | - |
| 1777407136 | 16.11° C | 35% | 1019.6 hPa | 0 mm | - | 475 W/m² | - |
| 1777406831 | 15.56° C | 38% | 1019.9 hPa | 0 mm | - | 488 W/m² | - |
| 1777406526 | 16.11° C | 38% | 1019.9 hPa | 0 mm | - | 499 W/m² | - |
| 1777406221 | 15° C | 41% | 1019.8 hPa | 0 mm | - | 499 W/m² | - |
| 1777405921 | 15.56° C | 42% | 1019.7 hPa | 0 mm | - | 492 W/m² | - |
| 1777405617 | 16.11° C | 44% | 1019.8 hPa | 0 mm | - | 501 W/m² | - |
| 1777405315 | 16.67° C | 42% | 1019.7 hPa | 0 mm | - | 528 W/m² | - |
| 1777405015 | 16.67° C | 45% | 1019.7 hPa | 0 mm | - | 457 W/m² | - |
| 1777404710 | 16.67° C | 44% | 1020 hPa | 0 mm | - | 477 W/m² | - |
| 1777404406 | 16.11° C | 47% | 1020 hPa | 0 mm | - | 588 W/m² | - |
| 1777404103 | 16.11° C | 46% | 1019.9 hPa | 0 mm | - | 610 W/m² | - |
* Rain latest hour (hover to see other rain measurements)
** Current wind speed in m/s (hover to see current wind gust speed)